sensor_id;sensor_type;location;lat;lon;timestamp;P1;durP1;ratioP1;P2;durP2;ratioP2
66342;SDS011;53144;51.524;5.080;2022-07-29T08:47:54;6.47;;;2.50;;
66342;SDS011;53144;51.524;5.080;2022-07-29T08:50:20;6.13;;;2.75;;
66342;SDS011;53144;51.524;5.080;2022-07-29T08:52:45;11.55;;;3.20;;
66342;SDS011;53144;51.524;5.080;2022-07-29T08:55:12;6.20;;;2.50;;
66342;SDS011;53144;51.524;5.080;2022-07-29T08:57:40;8.63;;;2.78;;
66342;SDS011;53144;51.524;5.080;2022-07-29T09:00:06;8.68;;;2.58;;
66342;SDS011;53144;51.524;5.080;2022-07-29T09:02:35;8.30;;;2.10;;
66342;SDS011;53144;51.524;5.080;2022-07-29T09:05:03;7.00;;;2.28;;
66342;SDS011;53144;51.524;5.080;2022-07-29T09:07:29;12.68;;;2.72;;
66342;SDS011;53144;51.524;5.080;2022-07-29T09:09:55;11.95;;;2.40;;
66342;SDS011;53144;51.524;5.080;2022-07-29T09:12:21;3.95;;;2.30;;
66342;SDS011;53144;51.524;5.080;2022-07-29T09:14:47;6.07;;;2.30;;
66342;SDS011;53144;51.524;5.080;2022-07-29T09:17:12;4.22;;;2.10;;
66342;SDS011;53144;51.524;5.080;2022-07-29T09:19:41;11.30;;;2.47;;
66342;SDS011;53144;51.524;5.080;2022-07-29T09:22:07;7.85;;;2.35;;
66342;SDS011;53144;51.524;5.080;2022-07-29T09:26:59;8.07;;;2.10;;
66342;SDS011;53144;51.524;5.080;2022-07-29T09:29:25;3.72;;;2.30;;
66342;SDS011;53144;51.524;5.080;2022-07-29T09:31:52;5.63;;;2.28;;
66342;SDS011;53144;51.524;5.080;2022-07-29T09:34:26;4.78;;;2.60;;
66342;SDS011;53144;51.524;5.080;2022-07-29T09:36:57;5.53;;;2.20;;
66342;SDS011;53144;51.524;5.080;2022-07-29T09:39:35;4.70;;;2.20;;
66342;SDS011;53144;51.524;5.080;2022-07-29T09:42:03;5.53;;;2.45;;
66342;SDS011;53144;51.524;5.080;2022-07-29T09:47:13;9.30;;;2.40;;
66342;SDS011;53144;51.524;5.080;2022-07-29T09:49:55;6.63;;;2.40;;
66342;SDS011;53144;51.524;5.080;2022-07-29T09:52:24;7.28;;;2.50;;
66342;SDS011;53144;51.524;5.080;2022-07-29T09:54:50;9.35;;;2.78;;
66342;SDS011;53144;51.524;5.080;2022-07-29T09:57:27;6.63;;;2.13;;
66342;SDS011;53144;51.524;5.080;2022-07-29T10:02:31;5.88;;;2.45;;
66342;SDS011;53144;51.524;5.080;2022-07-29T10:04:58;9.00;;;2.47;;
66342;SDS011;53144;51.524;5.080;2022-07-29T10:07:24;7.22;;;2.85;;
66342;SDS011;53144;51.524;5.080;2022-07-29T10:09:54;6.15;;;2.20;;
66342;SDS011;53144;51.524;5.080;2022-07-29T10:12:21;6.10;;;2.03;;
66342;SDS011;53144;51.524;5.080;2022-07-29T10:14:48;8.57;;;2.33;;
66342;SDS011;53144;51.524;5.080;2022-07-29T10:17:14;4.68;;;1.90;;
66342;SDS011;53144;51.524;5.080;2022-07-29T10:19:40;3.63;;;1.90;;
66342;SDS011;53144;51.524;5.080;2022-07-29T10:22:07;7.28;;;2.10;;
66342;SDS011;53144;51.524;5.080;2022-07-29T10:24:34;8.52;;;2.83;;
66342;SDS011;53144;51.524;5.080;2022-07-29T10:27:03;7.38;;;2.63;;
66342;SDS011;53144;51.524;5.080;2022-07-29T10:29:30;5.10;;;2.17;;
66342;SDS011;53144;51.524;5.080;2022-07-29T10:34:49;7.22;;;2.20;;
66342;SDS011;53144;51.524;5.080;2022-07-29T10:43:22;6.68;;;2.25;;
66342;SDS011;53144;51.524;5.080;2022-07-29T10:45:55;4.60;;;2.10;;
66342;SDS011;53144;51.524;5.080;2022-07-29T10:48:22;4.15;;;2.03;;
66342;SDS011;53144;51.524;5.080;2022-07-29T10:50:58;5.43;;;2.40;;
66342;SDS011;53144;51.524;5.080;2022-07-29T10:56:31;5.78;;;2.40;;
66342;SDS011;53144;51.524;5.080;2022-07-29T11:01:45;4.20;;;2.05;;
66342;SDS011;53144;51.524;5.080;2022-07-29T11:04:14;5.00;;;2.05;;
66342;SDS011;53144;51.524;5.080;2022-07-29T11:09:32;7.55;;;2.20;;
66342;SDS011;53144;51.524;5.080;2022-07-29T11:11:58;4.45;;;1.88;;
66342;SDS011;53144;51.524;5.080;2022-07-29T11:14:58;5.60;;;2.10;;
66342;SDS011;53144;51.524;5.080;2022-07-29T11:17:19;8.00;;;2.08;;
66342;SDS011;53144;51.524;5.080;2022-07-29T11:19:45;6.80;;;1.90;;
66342;SDS011;53144;51.524;5.080;2022-07-29T11:22:10;4.93;;;2.13;;
66342;SDS011;53144;51.524;5.080;2022-07-29T11:24:37;4.00;;;2.00;;
66342;SDS011;53144;51.524;5.080;2022-07-29T11:29:40;4.32;;;1.80;;
66342;SDS011;53144;51.524;5.080;2022-07-29T11:32:13;7.13;;;1.85;;
66342;SDS011;53144;51.524;5.080;2022-07-29T11:34:41;4.20;;;1.88;;
66342;SDS011;53144;51.524;5.080;2022-07-29T11:39:39;9.27;;;2.20;;
66342;SDS011;53144;51.524;5.080;2022-07-29T11:50:02;4.93;;;1.98;;
66342;SDS011;53144;51.524;5.080;2022-07-29T11:52:34;6.38;;;1.85;;
66342;SDS011;53144;51.524;5.080;2022-07-29T11:55:12;9.55;;;1.90;;
66342;SDS011;53144;51.524;5.080;2022-07-29T11:57:50;6.72;;;1.73;;
66342;SDS011;53144;51.524;5.080;2022-07-29T12:00:22;6.10;;;2.10;;
66342;SDS011;53144;51.524;5.080;2022-07-29T12:02:47;3.47;;;1.95;;
66342;SDS011;53144;51.524;5.080;2022-07-29T12:05:13;7.90;;;1.83;;
66342;SDS011;53144;51.524;5.080;2022-07-29T12:07:39;8.05;;;2.13;;
66342;SDS011;53144;51.524;5.080;2022-07-29T12:10:06;7.60;;;2.00;;
66342;SDS011;53144;51.524;5.080;2022-07-29T12:12:33;6.68;;;2.15;;
66342;SDS011;53144;51.524;5.080;2022-07-29T12:15:15;10.18;;;2.30;;
66342;SDS011;53144;51.524;5.080;2022-07-29T12:17:43;4.25;;;1.80;;
66342;SDS011;53144;51.524;5.080;2022-07-29T12:20:09;11.02;;;2.22;;
66342;SDS011;53144;51.524;5.080;2022-07-29T12:22:35;12.57;;;1.80;;
66342;SDS011;53144;51.524;5.080;2022-07-29T12:25:05;4.95;;;1.70;;
66342;SDS011;53144;51.524;5.080;2022-07-29T12:27:31;6.30;;;1.85;;
66342;SDS011;53144;51.524;5.080;2022-07-29T12:32:46;6.30;;;2.08;;
66342;SDS011;53144;51.524;5.080;2022-07-29T12:35:16;5.37;;;2.27;;
66342;SDS011;53144;51.524;5.080;2022-07-29T12:37:47;9.52;;;1.90;;
66342;SDS011;53144;51.524;5.080;2022-07-29T12:40:15;5.63;;;1.85;;
66342;SDS011;53144;51.524;5.080;2022-07-29T12:43:04;4.70;;;1.88;;
66342;SDS011;53144;51.524;5.080;2022-07-29T12:45:31;3.15;;;1.70;;
66342;SDS011;53144;51.524;5.080;2022-07-29T12:47:56;3.58;;;1.80;;
66342;SDS011;53144;51.524;5.080;2022-07-29T12:50:22;5.32;;;1.88;;
66342;SDS011;53144;51.524;5.080;2022-07-29T12:52:48;6.70;;;2.20;;
66342;SDS011;53144;51.524;5.080;2022-07-29T12:55:13;3.83;;;1.70;;
66342;SDS011;53144;51.524;5.080;2022-07-29T12:57:49;6.38;;;1.85;;
66342;SDS011;53144;51.524;5.080;2022-07-29T13:00:21;4.75;;;2.20;;
66342;SDS011;53144;51.524;5.080;2022-07-29T13:02:54;4.45;;;2.05;;
66342;SDS011;53144;51.524;5.080;2022-07-29T13:05:20;5.80;;;1.90;;
66342;SDS011;53144;51.524;5.080;2022-07-29T13:07:46;7.53;;;2.10;;
66342;SDS011;53144;51.524;5.080;2022-07-29T13:10:15;3.10;;;1.90;;
66342;SDS011;53144;51.524;5.080;2022-07-29T13:15:44;4.63;;;1.80;;
66342;SDS011;53144;51.524;5.080;2022-07-29T13:18:29;3.70;;;2.13;;
66342;SDS011;53144;51.524;5.080;2022-07-29T13:20:56;3.22;;;1.63;;
66342;SDS011;53144;51.524;5.080;2022-07-29T13:23:34;11.73;;;2.38;;
66342;SDS011;53144;51.524;5.080;2022-07-29T13:26:06;9.27;;;2.13;;
66342;SDS011;53144;51.524;5.080;2022-07-29T13:28:32;6.25;;;2.20;;
66342;SDS011;53144;51.524;5.080;2022-07-29T13:30:59;4.35;;;2.08;;
66342;SDS011;53144;51.524;5.080;2022-07-29T13:33:24;6.15;;;2.50;;
66342;SDS011;53144;51.524;5.080;2022-07-29T13:35:50;4.28;;;2.28;;
66342;SDS011;53144;51.524;5.080;2022-07-29T13:38:15;5.57;;;2.20;;
66342;SDS011;53144;51.524;5.080;2022-07-29T13:40:41;4.40;;;2.10;;
66342;SDS011;53144;51.524;5.080;2022-07-29T13:43:08;7.45;;;2.20;;
66342;SDS011;53144;51.524;5.080;2022-07-29T13:45:34;6.50;;;2.30;;
66342;SDS011;53144;51.524;5.080;2022-07-29T13:48:00;4.32;;;2.47;;
66342;SDS011;53144;51.524;5.080;2022-07-29T13:50:25;3.05;;;2.10;;
66342;SDS011;53144;51.524;5.080;2022-07-29T13:52:51;7.05;;;2.10;;
66342;SDS011;53144;51.524;5.080;2022-07-29T13:55:16;2.78;;;2.00;;
66342;SDS011;53144;51.524;5.080;2022-07-29T13:57:42;8.50;;;2.63;;
66342;SDS011;53144;51.524;5.080;2022-07-29T14:00:07;5.13;;;2.22;;
66342;SDS011;53144;51.524;5.080;2022-07-29T14:02:33;6.43;;;1.88;;
66342;SDS011;53144;51.524;5.080;2022-07-29T14:04:59;5.35;;;2.17;;
66342;SDS011;53144;51.524;5.080;2022-07-29T14:07:24;4.03;;;1.80;;
66342;SDS011;53144;51.524;5.080;2022-07-29T14:09:49;5.47;;;1.67;;
66342;SDS011;53144;51.524;5.080;2022-07-29T14:12:15;6.15;;;1.90;;
66342;SDS011;53144;51.524;5.080;2022-07-29T14:14:42;5.30;;;1.85;;
66342;SDS011;53144;51.524;5.080;2022-07-29T14:17:07;4.78;;;1.50;;
66342;SDS011;53144;51.524;5.080;2022-07-29T14:19:32;4.50;;;1.98;;
66342;SDS011;53144;51.524;5.080;2022-07-29T14:22:01;6.85;;;2.20;;
66342;SDS011;53144;51.524;5.080;2022-07-29T14:24:30;5.13;;;2.00;;
66342;SDS011;53144;51.524;5.080;2022-07-29T14:26:58;4.80;;;2.00;;
66342;SDS011;53144;51.524;5.080;2022-07-29T14:29:24;7.93;;;2.20;;
66342;SDS011;53144;51.524;5.080;2022-07-29T14:31:49;4.32;;;1.88;;
66342;SDS011;53144;51.524;5.080;2022-07-29T14:34:14;6.18;;;1.90;;
66342;SDS011;53144;51.524;5.080;2022-07-29T14:36:40;3.13;;;1.90;;
66342;SDS011;53144;51.524;5.080;2022-07-29T14:39:06;5.97;;;2.00;;
66342;SDS011;53144;51.524;5.080;2022-07-29T14:41:32;6.40;;;2.15;;
66342;SDS011;53144;51.524;5.080;2022-07-29T14:43:58;5.07;;;2.22;;
66342;SDS011;53144;51.524;5.080;2022-07-29T14:46:25;7.85;;;2.90;;
66342;SDS011;53144;51.524;5.080;2022-07-29T14:48:53;7.65;;;2.55;;
66342;SDS011;53144;51.524;5.080;2022-07-29T14:51:18;8.65;;;5.30;;
66342;SDS011;53144;51.524;5.080;2022-07-29T14:53:44;9.38;;;3.83;;
66342;SDS011;53144;51.524;5.080;2022-07-29T14:56:09;5.82;;;2.65;;
66342;SDS011;53144;51.524;5.080;2022-07-29T14:58:35;5.60;;;2.45;;
66342;SDS011;53144;51.524;5.080;2022-07-29T15:01:00;4.40;;;2.20;;
66342;SDS011;53144;51.524;5.080;2022-07-29T15:03:26;5.45;;;2.33;;
66342;SDS011;53144;51.524;5.080;2022-07-29T15:05:52;6.93;;;3.15;;
66342;SDS011;53144;51.524;5.080;2022-07-29T15:08:18;5.45;;;2.22;;
66342;SDS011;53144;51.524;5.080;2022-07-29T15:10:43;7.97;;;2.20;;
66342;SDS011;53144;51.524;5.080;2022-07-29T15:13:09;7.72;;;2.30;;
66342;SDS011;53144;51.524;5.080;2022-07-29T15:15:34;6.18;;;2.65;;
66342;SDS011;53144;51.524;5.080;2022-07-29T15:18:00;6.85;;;3.00;;
66342;SDS011;53144;51.524;5.080;2022-07-29T15:20:25;6.70;;;2.58;;
66342;SDS011;53144;51.524;5.080;2022-07-29T15:22:52;3.50;;;2.33;;
66342;SDS011;53144;51.524;5.080;2022-07-29T15:25:17;8.30;;;2.00;;
66342;SDS011;53144;51.524;5.080;2022-07-29T15:27:43;4.43;;;2.30;;
66342;SDS011;53144;51.524;5.080;2022-07-29T15:30:09;10.65;;;2.60;;
66342;SDS011;53144;51.524;5.080;2022-07-29T15:32:35;5.93;;;2.17;;
66342;SDS011;53144;51.524;5.080;2022-07-29T15:35:00;12.48;;;2.15;;
66342;SDS011;53144;51.524;5.080;2022-07-29T15:37:26;11.38;;;2.53;;
66342;SDS011;53144;51.524;5.080;2022-07-29T15:39:53;10.13;;;2.35;;
66342;SDS011;53144;51.524;5.080;2022-07-29T15:42:18;4.95;;;2.85;;
66342;SDS011;53144;51.524;5.080;2022-07-29T15:44:43;6.95;;;2.70;;
66342;SDS011;53144;51.524;5.080;2022-07-29T15:47:09;4.50;;;2.30;;
66342;SDS011;53144;51.524;5.080;2022-07-29T15:49:36;10.00;;;2.60;;
66342;SDS011;53144;51.524;5.080;2022-07-29T15:52:04;6.35;;;2.70;;
66342;SDS011;53144;51.524;5.080;2022-07-29T15:54:34;8.80;;;2.25;;
66342;SDS011;53144;51.524;5.080;2022-07-29T15:57:00;5.03;;;2.50;;
66342;SDS011;53144;51.524;5.080;2022-07-29T15:59:28;5.70;;;3.22;;
66342;SDS011;53144;51.524;5.080;2022-07-29T16:01:54;9.73;;;2.90;;
66342;SDS011;53144;51.524;5.080;2022-07-29T16:04:20;6.90;;;2.80;;
66342;SDS011;53144;51.524;5.080;2022-07-29T16:06:45;8.27;;;2.60;;
66342;SDS011;53144;51.524;5.080;2022-07-29T16:09:11;9.10;;;3.22;;
66342;SDS011;53144;51.524;5.080;2022-07-29T16:11:37;7.00;;;2.60;;
66342;SDS011;53144;51.524;5.080;2022-07-29T16:14:02;5.07;;;2.75;;
66342;SDS011;53144;51.524;5.080;2022-07-29T16:16:28;7.70;;;3.20;;
66342;SDS011;53144;51.524;5.080;2022-07-29T16:18:54;7.53;;;2.90;;
66342;SDS011;53144;51.524;5.080;2022-07-29T16:21:19;6.65;;;2.90;;
66342;SDS011;53144;51.524;5.080;2022-07-29T16:23:46;7.93;;;2.75;;
66342;SDS011;53144;51.524;5.080;2022-07-29T16:26:12;6.13;;;2.40;;
66342;SDS011;53144;51.524;5.080;2022-07-29T16:28:37;6.43;;;2.50;;
66342;SDS011;53144;51.524;5.080;2022-07-29T16:31:03;6.03;;;2.63;;
66342;SDS011;53144;51.524;5.080;2022-07-29T16:33:28;6.55;;;2.83;;
66342;SDS011;53144;51.524;5.080;2022-07-29T16:35:54;13.40;;;3.05;;
66342;SDS011;53144;51.524;5.080;2022-07-29T16:38:19;5.13;;;2.85;;
66342;SDS011;53144;51.524;5.080;2022-07-29T16:40:45;17.50;;;3.05;;
66342;SDS011;53144;51.524;5.080;2022-07-29T16:43:10;7.55;;;2.42;;
66342;SDS011;53144;51.524;5.080;2022-07-29T16:45:36;7.93;;;2.83;;
66342;SDS011;53144;51.524;5.080;2022-07-29T16:48:01;5.15;;;2.70;;
66342;SDS011;53144;51.524;5.080;2022-07-29T16:50:27;4.85;;;2.20;;
66342;SDS011;53144;51.524;5.080;2022-07-29T16:52:54;8.98;;;3.20;;
66342;SDS011;53144;51.524;5.080;2022-07-29T16:55:20;5.55;;;2.47;;
66342;SDS011;53144;51.524;5.080;2022-07-29T16:57:45;6.80;;;2.60;;
66342;SDS011;53144;51.524;5.080;2022-07-29T17:00:11;6.53;;;2.53;;
66342;SDS011;53144;51.524;5.080;2022-07-29T17:02:38;5.00;;;2.90;;
66342;SDS011;53144;51.524;5.080;2022-07-29T17:05:04;7.32;;;2.60;;
66342;SDS011;53144;51.524;5.080;2022-07-29T17:07:31;6.03;;;3.25;;
66342;SDS011;53144;51.524;5.080;2022-07-29T17:09:56;6.82;;;2.63;;
66342;SDS011;53144;51.524;5.080;2022-07-29T17:12:22;5.20;;;2.60;;
66342;SDS011;53144;51.524;5.080;2022-07-29T17:14:48;4.35;;;2.30;;
66342;SDS011;53144;51.524;5.080;2022-07-29T17:17:13;6.38;;;2.65;;
66342;SDS011;53144;51.524;5.080;2022-07-29T17:19:39;5.88;;;2.65;;
66342;SDS011;53144;51.524;5.080;2022-07-29T17:22:05;4.80;;;2.33;;
66342;SDS011;53144;51.524;5.080;2022-07-29T17:24:33;8.82;;;2.33;;
66342;SDS011;53144;51.524;5.080;2022-07-29T17:26:58;7.97;;;2.72;;
66342;SDS011;53144;51.524;5.080;2022-07-29T17:29:24;4.18;;;2.40;;
66342;SDS011;53144;51.524;5.080;2022-07-29T17:31:49;5.97;;;2.60;;
66342;SDS011;53144;51.524;5.080;2022-07-29T17:34:14;6.75;;;2.40;;
66342;SDS011;53144;51.524;5.080;2022-07-29T17:36:40;7.25;;;2.60;;
66342;SDS011;53144;51.524;5.080;2022-07-29T17:39:06;5.40;;;2.80;;
66342;SDS011;53144;51.524;5.080;2022-07-29T17:41:33;5.78;;;2.40;;
66342;SDS011;53144;51.524;5.080;2022-07-29T17:43:58;7.93;;;2.75;;
66342;SDS011;53144;51.524;5.080;2022-07-29T17:46:24;8.23;;;2.30;;
66342;SDS011;53144;51.524;5.080;2022-07-29T17:48:52;6.90;;;2.90;;
66342;SDS011;53144;51.524;5.080;2022-07-29T17:51:19;4.88;;;2.30;;
66342;SDS011;53144;51.524;5.080;2022-07-29T17:53:45;7.10;;;2.75;;
66342;SDS011;53144;51.524;5.080;2022-07-29T17:56:10;6.13;;;2.40;;
66342;SDS011;53144;51.524;5.080;2022-07-29T17:58:36;4.95;;;2.42;;
66342;SDS011;53144;51.524;5.080;2022-07-29T18:01:02;5.53;;;2.35;;
66342;SDS011;53144;51.524;5.080;2022-07-29T18:03:27;7.47;;;2.72;;
66342;SDS011;53144;51.524;5.080;2022-07-29T18:05:53;8.98;;;2.40;;
66342;SDS011;53144;51.524;5.080;2022-07-29T18:08:18;4.45;;;2.58;;
66342;SDS011;53144;51.524;5.080;2022-07-29T18:10:44;5.13;;;2.38;;
66342;SDS011;53144;51.524;5.080;2022-07-29T18:13:10;3.10;;;2.20;;
66342;SDS011;53144;51.524;5.080;2022-07-29T18:15:40;7.30;;;2.53;;
66342;SDS011;53144;51.524;5.080;2022-07-29T18:18:06;5.68;;;2.53;;
66342;SDS011;53144;51.524;5.080;2022-07-29T18:20:31;6.47;;;2.33;;
66342;SDS011;53144;51.524;5.080;2022-07-29T18:22:57;7.53;;;2.47;;
66342;SDS011;53144;51.524;5.080;2022-07-29T18:25:22;7.88;;;2.30;;
66342;SDS011;53144;51.524;5.080;2022-07-29T18:27:48;4.03;;;2.47;;
66342;SDS011;53144;51.524;5.080;2022-07-29T18:30:14;4.45;;;2.25;;
66342;SDS011;53144;51.524;5.080;2022-07-29T18:32:40;5.55;;;2.13;;
66342;SDS011;53144;51.524;5.080;2022-07-29T18:35:05;6.88;;;2.60;;
66342;SDS011;53144;51.524;5.080;2022-07-29T18:37:31;6.90;;;2.50;;
66342;SDS011;53144;51.524;5.080;2022-07-29T18:39:58;7.43;;;2.05;;
66342;SDS011;53144;51.524;5.080;2022-07-29T18:42:23;6.40;;;2.17;;
66342;SDS011;53144;51.524;5.080;2022-07-29T18:44:49;4.20;;;2.10;;
66342;SDS011;53144;51.524;5.080;2022-07-29T18:47:15;4.38;;;2.20;;
66342;SDS011;53144;51.524;5.080;2022-07-29T18:49:40;5.70;;;2.00;;
66342;SDS011;53144;51.524;5.080;2022-07-29T18:52:05;5.22;;;2.25;;
66342;SDS011;53144;51.524;5.080;2022-07-29T18:54:31;6.68;;;2.30;;
66342;SDS011;53144;51.524;5.080;2022-07-29T18:56:56;5.88;;;2.00;;
66342;SDS011;53144;51.524;5.080;2022-07-29T18:59:22;6.45;;;2.30;;
66342;SDS011;53144;51.524;5.080;2022-07-29T19:01:47;5.93;;;2.33;;
66342;SDS011;53144;51.524;5.080;2022-07-29T19:04:14;6.13;;;2.50;;
66342;SDS011;53144;51.524;5.080;2022-07-29T19:06:40;7.22;;;2.38;;
66342;SDS011;53144;51.524;5.080;2022-07-29T19:09:05;6.28;;;2.60;;
66342;SDS011;53144;51.524;5.080;2022-07-29T19:11:33;6.55;;;2.70;;
66342;SDS011;53144;51.524;5.080;2022-07-29T19:13:59;9.73;;;2.63;;
66342;SDS011;53144;51.524;5.080;2022-07-29T19:16:25;7.50;;;2.80;;
66342;SDS011;53144;51.524;5.080;2022-07-29T19:18:50;10.60;;;2.75;;
66342;SDS011;53144;51.524;5.080;2022-07-29T19:21:15;7.35;;;3.83;;
66342;SDS011;53144;51.524;5.080;2022-07-29T19:23:41;7.63;;;3.25;;
66342;SDS011;53144;51.524;5.080;2022-07-29T19:26:06;6.55;;;2.22;;
66342;SDS011;53144;51.524;5.080;2022-07-29T19:28:32;8.95;;;2.50;;
66342;SDS011;53144;51.524;5.080;2022-07-29T19:30:57;4.93;;;2.15;;
66342;SDS011;53144;51.524;5.080;2022-07-29T19:33:23;6.22;;;2.00;;
66342;SDS011;53144;51.524;5.080;2022-07-29T19:35:48;4.90;;;2.08;;
66342;SDS011;53144;51.524;5.080;2022-07-29T19:38:14;7.57;;;2.55;;
66342;SDS011;53144;51.524;5.080;2022-07-29T19:40:40;6.75;;;2.10;;
66342;SDS011;53144;51.524;5.080;2022-07-29T19:43:06;5.38;;;2.10;;
66342;SDS011;53144;51.524;5.080;2022-07-29T19:45:33;4.80;;;1.90;;
66342;SDS011;53144;51.524;5.080;2022-07-29T19:47:59;5.63;;;2.00;;
66342;SDS011;53144;51.524;5.080;2022-07-29T19:50:26;3.97;;;2.10;;
66342;SDS011;53144;51.524;5.080;2022-07-29T19:52:52;8.38;;;2.20;;
66342;SDS011;53144;51.524;5.080;2022-07-29T19:55:17;6.50;;;2.45;;
66342;SDS011;53144;51.524;5.080;2022-07-29T19:57:43;7.50;;;2.13;;
66342;SDS011;53144;51.524;5.080;2022-07-29T20:00:10;8.35;;;2.13;;
66342;SDS011;53144;51.524;5.080;2022-07-29T20:02:36;7.32;;;2.00;;
66342;SDS011;53144;51.524;5.080;2022-07-29T20:05:03;6.68;;;2.10;;
66342;SDS011;53144;51.524;5.080;2022-07-29T20:07:28;9.13;;;1.90;;
66342;SDS011;53144;51.524;5.080;2022-07-29T20:09:54;4.93;;;1.98;;
66342;SDS011;53144;51.524;5.080;2022-07-29T20:12:22;6.57;;;2.05;;
66342;SDS011;53144;51.524;5.080;2022-07-29T20:14:48;8.32;;;2.03;;
66342;SDS011;53144;51.524;5.080;2022-07-29T20:17:15;6.93;;;2.30;;
66342;SDS011;53144;51.524;5.080;2022-07-29T20:19:43;5.82;;;1.95;;
66342;SDS011;53144;51.524;5.080;2022-07-29T20:22:11;5.13;;;2.40;;
66342;SDS011;53144;51.524;5.080;2022-07-29T20:24:38;7.80;;;1.80;;
66342;SDS011;53144;51.524;5.080;2022-07-29T20:27:03;7.13;;;2.60;;
66342;SDS011;53144;51.524;5.080;2022-07-29T20:29:29;4.28;;;2.10;;
66342;SDS011;53144;51.524;5.080;2022-07-29T20:31:54;9.88;;;2.10;;
66342;SDS011;53144;51.524;5.080;2022-07-29T20:34:20;8.07;;;2.33;;
66342;SDS011;53144;51.524;5.080;2022-07-29T20:36:45;5.72;;;2.00;;
66342;SDS011;53144;51.524;5.080;2022-07-29T20:39:12;6.55;;;2.10;;
66342;SDS011;53144;51.524;5.080;2022-07-29T20:41:38;8.13;;;2.33;;
66342;SDS011;53144;51.524;5.080;2022-07-29T20:44:04;8.43;;;2.03;;
66342;SDS011;53144;51.524;5.080;2022-07-29T20:46:29;4.13;;;1.70;;
66342;SDS011;53144;51.524;5.080;2022-07-29T20:48:55;9.90;;;1.88;;
66342;SDS011;53144;51.524;5.080;2022-07-29T20:51:20;4.93;;;1.92;;
66342;SDS011;53144;51.524;5.080;2022-07-29T20:53:46;5.90;;;2.17;;
66342;SDS011;53144;51.524;5.080;2022-07-29T20:56:12;7.25;;;2.17;;
66342;SDS011;53144;51.524;5.080;2022-07-29T20:58:38;6.82;;;1.98;;
66342;SDS011;53144;51.524;5.080;2022-07-29T21:01:04;7.90;;;2.10;;
66342;SDS011;53144;51.524;5.080;2022-07-29T21:03:31;5.63;;;2.22;;
66342;SDS011;53144;51.524;5.080;2022-07-29T21:05:56;5.60;;;2.22;;
66342;SDS011;53144;51.524;5.080;2022-07-29T21:08:22;5.78;;;2.05;;
66342;SDS011;53144;51.524;5.080;2022-07-29T21:10:49;10.68;;;2.70;;
66342;SDS011;53144;51.524;5.080;2022-07-29T21:13:15;5.60;;;2.40;;
66342;SDS011;53144;51.524;5.080;2022-07-29T21:15:41;5.50;;;2.40;;
66342;SDS011;53144;51.524;5.080;2022-07-29T21:18:09;8.48;;;2.60;;
66342;SDS011;53144;51.524;5.080;2022-07-29T21:20:50;12.23;;;2.42;;
66342;SDS011;53144;51.524;5.080;2022-07-29T21:23:16;6.25;;;2.53;;
66342;SDS011;53144;51.524;5.080;2022-07-29T21:25:42;7.60;;;2.55;;
66342;SDS011;53144;51.524;5.080;2022-07-29T21:28:07;7.45;;;2.30;;
66342;SDS011;53144;51.524;5.080;2022-07-29T21:30:51;5.38;;;2.88;;
66342;SDS011;53144;51.524;5.080;2022-07-29T21:33:17;7.22;;;2.88;;
66342;SDS011;53144;51.524;5.080;2022-07-29T21:35:43;6.35;;;2.65;;
66342;SDS011;53144;51.524;5.080;2022-07-29T21:38:08;7.55;;;2.67;;
66342;SDS011;53144;51.524;5.080;2022-07-29T21:40:34;7.15;;;2.65;;
66342;SDS011;53144;51.524;5.080;2022-07-29T21:42:59;5.75;;;2.45;;
66342;SDS011;53144;51.524;5.080;2022-07-29T21:45:25;14.57;;;3.15;;
66342;SDS011;53144;51.524;5.080;2022-07-29T21:47:53;12.20;;;2.90;;
66342;SDS011;53144;51.524;5.080;2022-07-29T21:50:19;10.38;;;2.83;;
66342;SDS011;53144;51.524;5.080;2022-07-29T21:52:44;8.93;;;3.25;;
66342;SDS011;53144;51.524;5.080;2022-07-29T21:55:09;9.50;;;3.45;;
66342;SDS011;53144;51.524;5.080;2022-07-29T21:57:35;6.75;;;2.90;;
66342;SDS011;53144;51.524;5.080;2022-07-29T22:00:01;9.70;;;2.83;;
66342;SDS011;53144;51.524;5.080;2022-07-29T22:02:27;7.10;;;2.67;;
66342;SDS011;53144;51.524;5.080;2022-07-29T22:04:52;10.05;;;2.83;;
66342;SDS011;53144;51.524;5.080;2022-07-29T22:07:17;5.78;;;2.70;;
66342;SDS011;53144;51.524;5.080;2022-07-29T22:09:43;7.78;;;2.72;;
66342;SDS011;53144;51.524;5.080;2022-07-29T22:12:09;9.32;;;3.00;;
66342;SDS011;53144;51.524;5.080;2022-07-29T22:14:34;7.47;;;3.10;;
66342;SDS011;53144;51.524;5.080;2022-07-29T22:16:59;10.35;;;3.35;;
66342;SDS011;53144;51.524;5.080;2022-07-29T22:19:25;10.52;;;3.65;;
66342;SDS011;53144;51.524;5.080;2022-07-29T22:21:50;8.32;;;3.03;;
66342;SDS011;53144;51.524;5.080;2022-07-29T22:24:16;11.65;;;3.20;;
66342;SDS011;53144;51.524;5.080;2022-07-29T22:26:41;8.77;;;3.33;;
66342;SDS011;53144;51.524;5.080;2022-07-29T22:29:06;12.02;;;3.30;;
66342;SDS011;53144;51.524;5.080;2022-07-29T22:31:32;9.25;;;3.40;;
66342;SDS011;53144;51.524;5.080;2022-07-29T22:33:57;8.85;;;3.20;;
66342;SDS011;53144;51.524;5.080;2022-07-29T22:36:24;15.13;;;3.67;;
66342;SDS011;53144;51.524;5.080;2022-07-29T22:38:50;8.27;;;3.60;;
66342;SDS011;53144;51.524;5.080;2022-07-29T22:41:15;11.43;;;3.92;;
66342;SDS011;53144;51.524;5.080;2022-07-29T22:43:40;15.65;;;3.75;;
66342;SDS011;53144;51.524;5.080;2022-07-29T22:46:09;10.25;;;3.80;;
66342;SDS011;53144;51.524;5.080;2022-07-29T22:48:35;10.63;;;4.10;;
66342;SDS011;53144;51.524;5.080;2022-07-29T22:51:01;9.35;;;3.70;;
66342;SDS011;53144;51.524;5.080;2022-07-29T22:53:26;15.75;;;4.00;;
66342;SDS011;53144;51.524;5.080;2022-07-29T22:55:51;18.70;;;3.90;;
66342;SDS011;53144;51.524;5.080;2022-07-29T22:58:17;5.82;;;3.40;;
66342;SDS011;53144;51.524;5.080;2022-07-29T23:00:42;8.98;;;3.55;;
66342;SDS011;53144;51.524;5.080;2022-07-29T23:03:08;8.40;;;3.60;;
66342;SDS011;53144;51.524;5.080;2022-07-29T23:05:33;8.55;;;3.28;;
66342;SDS011;53144;51.524;5.080;2022-07-29T23:07:59;8.95;;;3.72;;
66342;SDS011;53144;51.524;5.080;2022-07-29T23:10:24;10.65;;;3.83;;
66342;SDS011;53144;51.524;5.080;2022-07-29T23:12:49;10.77;;;3.95;;
66342;SDS011;53144;51.524;5.080;2022-07-29T23:15:15;10.70;;;3.67;;
66342;SDS011;53144;51.524;5.080;2022-07-29T23:17:40;8.50;;;3.88;;
66342;SDS011;53144;51.524;5.080;2022-07-29T23:20:06;8.93;;;4.25;;
66342;SDS011;53144;51.524;5.080;2022-07-29T23:22:33;6.55;;;3.63;;
66342;SDS011;53144;51.524;5.080;2022-07-29T23:24:59;11.20;;;4.70;;
66342;SDS011;53144;51.524;5.080;2022-07-29T23:27:24;8.85;;;3.97;;
66342;SDS011;53144;51.524;5.080;2022-07-29T23:29:49;9.65;;;3.65;;
66342;SDS011;53144;51.524;5.080;2022-07-29T23:32:15;14.55;;;4.45;;
66342;SDS011;53144;51.524;5.080;2022-07-29T23:34:40;10.55;;;4.40;;
66342;SDS011;53144;51.524;5.080;2022-07-29T23:37:05;9.95;;;4.30;;
66342;SDS011;53144;51.524;5.080;2022-07-29T23:39:31;13.23;;;4.78;;
66342;SDS011;53144;51.524;5.080;2022-07-29T23:41:56;10.13;;;3.90;;
66342;SDS011;53144;51.524;5.080;2022-07-29T23:44:22;13.50;;;4.82;;
66342;SDS011;53144;51.524;5.080;2022-07-29T23:46:47;9.90;;;4.18;;
66342;SDS011;53144;51.524;5.080;2022-07-29T23:49:12;9.68;;;4.30;;
66342;SDS011;53144;51.524;5.080;2022-07-29T23:51:38;8.35;;;4.35;;
66342;SDS011;53144;51.524;5.080;2022-07-29T23:54:03;10.02;;;3.95;;
66342;SDS011;53144;51.524;5.080;2022-07-29T23:56:29;6.00;;;4.15;;
66342;SDS011;53144;51.524;5.080;2022-07-29T23:58:54;12.52;;;4.38;;
